Latest Weather Observations for Cape Naturaliste

IDW60801

Issued at 12:02 pm WST Thursday 5 March 2015 (issued every 30 minutes, with the page automatically refreshed every 10 minutes)

About weather observations | Map of weather stations | Latest weather observations for WA | Other Formats
Station Details ID: 009519 Name: CAPE NATURALISTE Lat: -33.54 Lon: 115.02 Height: 109.0 m
Data from the previous 72 hours. | See also: Recent months at Cape Naturaliste
Date/Time
WST
Temp
°C
App
Temp
°C
Dew
Point
Rel
Hum
%
Delta-T
°C
Wind Press
QNH
hPa
Press
MSL
hPa
Rain
since 9 am
mm
Dir
 
Spd
km/h
Gust
km/h
Spd
kts
Gust
kts
05/12:00pm 25.4 21.8 12.9 45 7.3 E 24 30 13 16 1024.4 1024.1 0.0
05/11:30am 24.7 20.9 13.6 50 6.5 E 26 30 14 16 1024.7 1024.4 0.0
05/11:00am 24.0 19.7 13.2 50 6.3 E 28 35 15 19 1024.9 1024.6 0.0
05/10:30am 22.6 17.7 12.5 53 5.8 E 30 35 16 19 1025.2 1024.9 0.0
05/10:00am 22.3 17.6 13.1 56 5.3 E 30 37 16 20 1025.2 1024.9 0.0
05/09:30am 21.1 15.8 13.0 60 4.6 E 33 41 18 22 1025.1 1024.8 0.0
05/09:00am 20.8 15.6 13.3 62 4.3 E 33 43 18 23 1025.0 1024.7 0.0
05/08:30am 19.7 14.3 12.7 64 4.0 ESE 33 43 18 23 1024.9 1024.6 0.0
05/08:00am 18.9 13.1 12.6 67 3.5 E 35 44 19 24 1024.8 1024.5 0.0
05/07:30am 18.5 12.7 12.7 69 3.3 E 35 46 19 25 1024.6 1024.3 0.0
05/07:00am 17.9 12.1 12.6 71 3.0 ESE 35 43 19 23 1024.3 1024.0 0.0
05/06:30am 17.1 11.1 12.2 73 2.7 E 35 43 19 23 1024.1 1023.8 0.0
05/06:00am 16.9 11.3 12.0 73 2.7 E 33 43 18 23 1023.8 1023.5 0.0
05/05:30am 16.9 10.8 11.8 72 2.8 E 35 43 19 23 1023.5 1023.2 0.0
05/05:00am 17.0 10.9 11.7 71 2.9 ESE 35 46 19 25 1023.2 1022.9 0.0
05/04:30am 17.1 11.0 11.6 70 3.0 ESE 35 44 19 24 1023.1 1022.8 0.0
05/04:00am 17.2 11.0 11.5 69 3.1 ESE 35 46 19 25 1023.1 1022.8 0.0
05/03:30am 17.4 11.5 11.2 67 3.4 ESE 33 43 18 23 1023.1 1022.8 0.0
05/03:00am 17.9 11.6 11.2 65 3.6 ESE 35 50 19 27 1023.0 1022.7 0.0
05/02:30am 18.2 12.6 11.5 65 3.7 ESE 32 41 17 22 1023.0 1022.7 0.0
05/02:00am 18.8 13.0 11.4 62 4.1 ESE 33 43 18 23 1023.0 1022.7 0.0
05/01:30am 19.3 13.7 12.1 63 4.0 ESE 33 44 18 24 1023.1 1022.8 0.0
05/01:00am 19.7 14.0 11.7 60 4.4 ESE 33 43 18 23 1023.1 1022.8 0.0
05/12:30am 19.8 14.1 11.0 57 4.8 ESE 32 43 17 23 1023.0 1022.7 0.0
05/12:00am 19.8 14.0 10.8 56 4.9 ESE 32 41 17 22 1023.0 1022.7 0.0
 
Date/Time
WST
Temp
°C
App
Temp
°C
Dew
Point
Rel
Hum
%
Delta-T
°C
Wind Press
QNH
hPa
Press
MSL
hPa
Rain
since 9 am
mm
Dir
 
Spd
km/h
Gust
km/h
Spd
kts
Gust
kts
04/11:30pm 19.6 14.3 11.1 58 4.7 ESE 30 39 16 21 1022.8 1022.5 0.0
04/11:00pm 19.6 14.3 11.1 58 4.6 ESE 30 41 16 22 1022.7 1022.4 0.0
04/10:30pm 20.1 14.3 11.6 58 4.7 SE 33 43 18 23 1022.6 1022.3 0.0
04/10:00pm 20.1 14.6 11.8 59 4.6 SE 32 46 17 25 1022.6 1022.3 0.0
04/09:49pm 20.4 14.7 11.9 58 4.8 SE 33 52 18 28 1022.6 1022.3 0.0
04/09:30pm 20.5 14.5 12.2 59 4.7 SE 35 48 19 26 1022.6 1022.3 0.0
04/09:00pm 20.3 14.9 12.3 60 4.5 SE 32 43 17 23 1022.3 1022.0 0.0
04/08:30pm 20.3 15.0 12.5 61 4.4 SSE 32 43 17 23 1022.1 1021.8 0.0
04/08:00pm 20.6 15.2 12.3 59 4.7 SSE 32 43 17 23 1021.7 1021.4 0.0
04/07:30pm 21.1 16.3 11.7 55 5.3 SSE 28 35 15 19 1021.5 1021.2 0.0
04/07:00pm 21.7 18.1 12.0 54 5.5 S 22 30 12 16 1021.4 1021.1 0.0
04/06:30pm 23.6 20.0 12.0 48 6.6 SSW 22 30 12 16 1021.4 1021.1 0.0
04/06:00pm 25.6 22.0 11.7 42 7.9 S 22 28 12 15 1021.2 1020.9 0.0
04/05:30pm 26.5 23.7 13.3 44 7.8 SSW 20 30 11 16 1021.1 1020.8 0.0
04/05:00pm 25.3 23.1 15.0 53 6.2 SSW 20 32 11 17 1021.1 1020.8 0.0
04/04:30pm 24.8 22.1 15.7 57 5.5 SSW 24 33 13 18 1021.0 1020.7 0.0
04/04:00pm 24.9 22.9 15.5 56 5.7 SW 20 28 11 15 1021.1 1020.8 0.0
04/03:30pm 25.2 22.8 15.5 55 5.9 SSW 22 30 12 16 1021.3 1021.0 0.0
04/03:00pm 25.6 23.4 15.0 52 6.4 SW 20 26 11 14 1021.7 1021.4 0.0
04/02:30pm 25.9 23.7 13.4 46 7.4 SW 17 20 9 11 1021.9 1021.6 0.0
04/02:00pm 26.5 24.7 13.3 44 7.8 WSW 15 20 8 11 1022.2 1021.9 0.0
04/01:30pm 26.6 25.0 15.0 49 7.0 WSW 17 24 9 13 1022.3 1022.0 0.0
04/01:00pm 26.0 22.7 11.7 41 8.2 WSW 20 26 11 14 1022.5 1022.2 0.0
04/12:30pm 25.4 23.4 11.6 42 7.9 SSE 13 24 7 13 1022.9 1022.6 0.0
04/12:00pm 26.5 22.3 11.0 38 8.8 E 24 35 13 19 1023.0 1022.7 0.0
04/11:30am 25.7 21.4 12.2 43 7.8 E 26 33 14 18 1023.5 1023.2 0.0
04/11:00am 25.0 20.7 10.8 41 7.9 ESE 24 33 13 18 1023.6 1023.3 0.0
04/10:30am 23.8 19.0 11.5 46 7.0 ESE 28 37 15 20 1023.9 1023.6 0.0
04/10:00am 22.2 17.4 11.6 51 5.9 ESE 28 39 15 21 1023.9 1023.6 0.0
04/09:30am 20.9 15.5 12.3 58 4.9 ESE 32 43 17 23 1023.9 1023.6 0.0
04/09:00am 19.2 13.6 11.5 61 4.2 ESE 32 41 17 22 1024.0 1023.7 0.0
04/08:40am 18.2 12.2 10.8 62 4.0 ESE 33 52 18 28 1023.9 1023.6 0.0
04/08:30am 18.0 12.0 10.9 63 3.9 ESE 33 48 18 26 1023.9 1023.6 0.0
04/08:00am 16.7 10.7 10.8 68 3.2 ESE 33 44 18 24 1023.7 1023.4 0.0
04/07:30am 15.8 10.0 10.8 72 2.7 SE 32 43 17 23 1023.5 1023.2 0.0
04/07:00am 14.3 8.3 10.1 76 2.2 SE 32 41 17 22 1023.2 1022.9 0.0
04/06:30am 13.3 7.2 9.7 79 1.9 SE 32 39 17 21 1023.0 1022.7 0.0
04/06:00am 13.2 7.1 9.6 79 1.8 SE 32 41 17 22 1022.6 1022.3 0.0
04/05:30am 13.4 7.3 9.6 78 2.0 ESE 32 39 17 21 1022.4 1022.1 0.0
04/05:00am 13.5 7.4 9.6 77 2.0 SE 32 37 17 20 1022.1 1021.8 0.0
04/04:30am 13.6 7.8 9.5 76 2.1 ESE 30 37 16 20 1022.0 1021.7 0.0
04/04:00am 14.0 7.9 9.6 75 2.3 SE 32 39 17 21 1021.8 1021.5 0.0
04/03:30am 14.1 7.9 9.5 74 2.4 SE 32 39 17 21 1021.6 1021.3 0.0
04/03:00am 14.2 8.0 9.4 73 2.5 SE 32 41 17 22 1021.4 1021.1 0.0
04/02:30am 14.4 8.0 9.4 72 2.6 SE 33 43 18 23 1021.3 1021.0 0.0
04/02:00am 14.9 8.8 9.7 71 2.7 SE 32 41 17 22 1021.2 1020.9 0.0
04/01:30am 15.1 8.9 9.9 71 2.7 SE 33 41 18 22 1021.3 1021.0 0.0
04/01:00am 15.4 9.4 10.0 70 2.8 SE 32 43 17 23 1021.3 1021.0 0.0
04/12:30am 15.5 9.2 9.8 69 3.0 SE 33 43 18 23 1021.6 1021.3 0.0
04/12:00am 15.7 9.5 10.0 69 3.0 SE 33 50 18 27 1021.7 1021.4 0.0
 
Date/Time
WST
Temp
°C
App
Temp
°C
Dew
Point
Rel
Hum
%
Delta-T
°C
Wind Press
QNH
hPa
Press
MSL
hPa
Rain
since 9 am
mm
Dir
 
Spd
km/h
Gust
km/h
Spd
kts
Gust
kts
03/11:30pm 15.9 8.9 10.0 68 3.1 SE 37 50 20 27 1021.7 1021.4 0.0
03/11:00pm 16.3 9.4 10.4 68 3.1 SE 37 54 20 29 1021.6 1021.3 0.0
03/10:38pm 16.5 9.6 10.4 67 3.2 SE 37 56 20 30 1021.6 1021.3 0.0
03/10:30pm 16.6 9.8 10.5 67 3.3 SE 37 50 20 27 1021.5 1021.2 0.0
03/10:00pm 16.8 10.0 10.6 67 3.3 SE 37 50 20 27 1021.3 1021.0 0.0
03/09:30pm 17.1 10.0 10.9 67 3.3 SE 39 54 21 29 1021.2 1020.9 0.0
03/09:00pm 17.2 10.1 11.0 67 3.3 SSE 39 50 21 27 1021.0 1020.7 0.0
03/08:30pm 17.4 10.7 11.0 66 3.5 SSE 37 50 20 27 1020.9 1020.5 0.0
03/08:00pm 17.8 11.1 11.1 65 3.6 SSE 37 48 20 26 1020.6 1020.2 0.0
03/07:30pm 18.1 12.4 11.0 63 3.9 SSE 32 43 17 23 1020.3 1019.9 0.0
03/07:00pm 19.1 14.2 11.2 60 4.3 S 28 41 15 22 1020.1 1019.7 0.0
03/06:30pm 20.3 15.3 11.0 55 5.1 S 28 41 15 22 1020.0 1019.6 0.0
03/06:00pm 22.1 17.1 10.9 49 6.2 S 28 41 15 22 1019.8 1019.4 0.0
03/05:30pm 24.1 19.5 11.1 44 7.3 S 26 39 14 21 1019.7 1019.3 0.0
03/05:00pm 25.5 21.0 11.3 41 8.0 SSE 26 39 14 21 1019.7 1019.3 0.0
03/04:30pm 26.1 21.1 11.1 39 8.5 SSE 28 39 15 21 1019.6 1019.2 0.0
03/04:00pm 26.7 21.9 11.6 39 8.6 S 28 39 15 21 1019.6 1019.2 0.0
03/03:30pm 27.9 25.8 12.3 38 9.1 SE 15 30 8 16 1019.7 1019.3 0.0
03/03:00pm 24.8 20.5 14.3 52 6.2 SSW 30 46 16 25 1019.7 1019.3 0.0
03/02:30pm 24.9 21.4 14.4 52 6.3 SSW 26 37 14 20 1020.1 1019.7 0.0
03/02:00pm 25.0 21.6 14.8 53 6.1 SW 26 35 14 19 1020.6 1020.2 0.0
03/01:30pm 24.6 20.8 13.5 50 6.5 SSW 26 35 14 19 1020.9 1020.5 0.0
03/01:00pm 24.7 21.5 13.0 48 6.8 SW 22 32 12 17 1021.2 1020.9 0.0
03/12:30pm 25.9 23.6 13.1 45 7.5 W 17 30 9 16 1021.7 1021.4 0.0
03/12:00pm 25.1 21.9 12.0 44 7.5 E 20 28 11 15 1022.0 1021.7 0.0
03/11:30am 25.0 21.8 11.9 44 7.5 E 20 28 11 15 1022.3 1022.0 0.0
03/11:00am 24.3 20.5 11.3 44 7.3 ESE 22 30 12 16 1022.5 1022.2 0.0
03/10:30am 23.7 19.9 11.1 45 7.1 SE 22 32 12 17 1022.7 1022.4 0.0
03/10:00am 22.1 17.5 11.2 50 6.1 ESE 26 35 14 19 1022.7 1022.4 0.0
03/09:30am 20.8 15.5 11.2 54 5.3 ESE 30 39 16 21 1022.8 1022.5 0.0
03/09:00am 19.2 13.8 11.0 59 4.5 ESE 30 41 16 22 1022.8 1022.5 0.0
03/08:30am 17.7 12.2 10.6 63 3.8 ESE 30 41 16 22 1022.9 1022.6 0.0
03/08:00am 16.9 11.7 10.3 65 3.5 ESE 28 39 15 21 1022.9 1022.6 0.0
03/07:30am 15.5 10.5 9.6 68 3.1 ESE 26 37 14 20 1022.8 1022.5 0.0
03/07:00am 14.3 9.9 8.9 70 2.7 SE 22 33 12 18 1022.8 1022.5 0.0
03/06:30am 12.9 8.2 7.8 71 2.5 SE 22 30 12 16 1022.5 1022.2 0.0
03/06:00am 12.8 7.7 7.7 71 2.5 ESE 24 32 13 17 1022.2 1021.9 0.0
03/05:30am 12.9 7.8 7.6 70 2.6 SE 24 32 13 17 1022.0 1021.7 0.0
03/05:00am 13.2 7.7 7.6 69 2.7 SE 26 43 14 23 1021.8 1021.5 0.0
03/04:30am 13.3 7.1 8.0 70 2.6 ESE 30 39 16 21 1021.5 1021.2 0.0
03/04:00am 12.9 8.5 7.6 70 2.6 SE 20 26 11 14 1021.6 1021.3 0.0
03/03:30am 13.2 7.8 7.9 70 2.6 ESE 26 37 14 20 1021.4 1021.1 0.0
03/03:00am 13.6 6.9 8.0 69 2.8 ESE 33 43 18 23 1021.1 1020.8 0.0
03/02:30am 13.7 6.6 8.1 69 2.8 ESE 35 46 19 25 1021.1 1020.8 0.0
03/02:00am 13.7 7.2 8.3 70 2.7 SE 32 41 17 22 1021.3 1021.0 0.0
03/01:30am 13.9 7.9 8.5 70 2.7 SE 30 39 16 21 1021.5 1021.2 0.0
03/01:00am 14.0 8.7 8.4 69 2.8 SE 26 35 14 19 1021.5 1021.2 0.0
03/12:30am 14.4 9.1 8.6 68 2.9 SE 26 37 14 20 1021.5 1021.2 0.0
03/12:00am 14.8 9.2 8.7 67 3.1 SE 28 39 15 21 1021.3 1021.0 0.0
 
Date/Time
WST
Temp
°C
App
Temp
°C
Dew
Point
Rel
Hum
%
Delta-T
°C
Wind Press
QNH
hPa
Press
MSL
hPa
Rain
since 9 am
mm
Dir
 
Spd
km/h
Gust
km/h
Spd
kts
Gust
kts
02/11:30pm 15.1 8.8 9.0 67 3.1 SE 32 46 17 25 1021.2 1020.9 0.0
02/11:00pm 15.3 8.1 9.2 67 3.1 SE 37 52 20 28 1020.7 1020.3 0.0
02/10:30pm 15.7 8.6 9.6 67 3.2 SE 37 52 20 28 1020.5 1020.1 0.0
02/10:00pm 16.1 9.4 9.8 66 3.3 SE 35 44 19 24 1020.4 1020.0 0.0
02/09:30pm 16.4 10.3 9.8 65 3.5 SE 32 43 17 23 1020.4 1020.0 0.0
02/09:09pm 16.8 11.2 10.2 65 3.5 SE 30 48 16 26 1020.2 1019.8 0.0
02/09:00pm 16.9 10.7 10.1 64 3.6 SE 33 43 18 23 1020.2 1019.8 0.0
02/08:30pm 17.3 11.8 10.4 64 3.7 SE 30 43 16 23 1019.8 1019.4 0.0
02/08:00pm 18.1 12.3 10.7 62 4.0 SE 32 43 17 23 1019.3 1018.9 0.0
02/07:33pm 18.4 12.9 10.7 61 4.2 SE 30 48 16 26 1018.7 1018.4 0.0
02/07:30pm 18.2 13.1 10.6 61 4.1 SE 28 37 15 20 1018.7 1018.4 0.0
02/07:00pm 18.8 13.0 10.9 60 4.3 SSE 32 50 17 27 1018.1 1017.8 0.0
02/06:52pm 19.0 13.2 10.8 59 4.5 SSE 32 50 17 27 1018.1 1017.8 0.0
02/06:30pm 19.5 13.5 10.8 57 4.7 SSE 33 50 18 27 1017.8 1017.5 0.0
02/06:22pm 19.7 13.9 10.7 56 4.9 SSE 32 50 17 27 1017.6 1017.3 0.0
02/06:00pm 20.5 14.2 10.9 54 5.3 SSE 35 52 19 28 1017.5 1017.2 0.0
02/05:48pm 21.0 15.0 10.8 52 5.6 SSE 33 54 18 29 1017.4 1017.1 0.0
02/05:30pm 21.9 16.0 11.0 50 6.0 SSE 33 44 18 24 1017.1 1016.8 0.0
02/05:00pm 23.8 18.5 11.2 45 7.1 SSE 30 46 16 25 1016.9 1016.6 0.0
02/04:30pm 24.6 19.6 10.8 42 7.7 SSE 28 39 15 21 1016.7 1016.4 0.0
02/04:00pm 24.8 20.0 10.3 40 8.1 SE 26 37 14 20 1016.6 1016.3 0.0
02/03:30pm 26.7 22.8 12.0 40 8.5 SSE 24 35 13 19 1016.6 1016.3 0.0
02/03:00pm 25.7 20.9 10.3 38 8.6 E 26 35 14 19 1016.7 1016.4 0.0
02/02:30pm 24.8 20.4 10.3 40 8.1 SE 24 35 13 19 1016.9 1016.6 0.0
02/02:00pm 26.5 22.4 10.2 36 9.1 SE 22 37 12 20 1017.0 1016.7 0.0
02/01:30pm 26.9 22.6 9.3 33 9.7 SE 22 33 12 18 1017.0 1016.7 0.0
02/01:00pm 26.6 22.8 11.1 38 8.8 SE 22 33 12 18 1017.2 1016.9 0.0
02/12:34pm 25.7 20.6 10.7 39 8.4 SE 28 46 15 25 1017.3 1017.0 0.0
02/12:30pm 23.8 18.6 9.0 39 8.0 SSE 26 46 14 25 1017.3 1017.0 0.0

Other Formats:

Comma delimited format used in spreadsheet applications
http://www.bom.gov.au/fwo/IDW60801/IDW60801.94600.axf

JavaScript Object Notation format (JSON) in row-major order
http://www.bom.gov.au/fwo/IDW60801/IDW60801.94600.json